sensor_id;sensor_type;location;lat;lon;timestamp;P1;P2;P0
63915;PMS5003;50094;51.356;-0.196;2023-03-01T00:01:18;1;1;
63915;PMS5003;50094;51.356;-0.196;2023-03-01T00:03:48;1;1;
63915;PMS5003;50094;51.356;-0.196;2023-03-01T00:06:17;0;0;
63915;PMS5003;50094;51.356;-0.196;2023-03-01T00:08:56;2;1;
63915;PMS5003;50094;51.356;-0.196;2023-03-01T00:11:30;1;1;
63915;PMS5003;50094;51.356;-0.196;2023-03-01T00:14:00;2;2;
63915;PMS5003;50094;51.356;-0.196;2023-03-01T00:16:29;3;2;
63915;PMS5003;50094;51.356;-0.196;2023-03-01T00:18:59;2;2;
63915;PMS5003;50094;51.356;-0.196;2023-03-01T00:21:27;3;3;
63915;PMS5003;50094;51.356;-0.196;2023-03-01T00:23:54;1;1;
63915;PMS5003;50094;51.356;-0.196;2023-03-01T00:26:23;2;2;
63915;PMS5003;50094;51.356;-0.196;2023-03-01T00:28:51;2;1;
63915;PMS5003;50094;51.356;-0.196;2023-03-01T00:31:20;2;2;
63915;PMS5003;50094;51.356;-0.196;2023-03-01T00:33:48;2;2;
63915;PMS5003;50094;51.356;-0.196;2023-03-01T00:36:19;1;1;
63915;PMS5003;50094;51.356;-0.196;2023-03-01T00:38:47;3;3;
63915;PMS5003;50094;51.356;-0.196;2023-03-01T00:41:15;3;2;
63915;PMS5003;50094;51.356;-0.196;2023-03-01T00:43:44;5;4;
63915;PMS5003;50094;51.356;-0.196;2023-03-01T00:46:13;4;3;
63915;PMS5003;50094;51.356;-0.196;2023-03-01T00:48:43;2;2;
63915;PMS5003;50094;51.356;-0.196;2023-03-01T00:51:11;1;1;
63915;PMS5003;50094;51.356;-0.196;2023-03-01T00:53:40;8;5;
63915;PMS5003;50094;51.356;-0.196;2023-03-01T00:56:08;4;4;
63915;PMS5003;50094;51.356;-0.196;2023-03-01T00:58:38;3;3;
63915;PMS5003;50094;51.356;-0.196;2023-03-01T01:01:07;7;5;
63915;PMS5003;50094;51.356;-0.196;2023-03-01T01:03:36;3;3;
63915;PMS5003;50094;51.356;-0.196;2023-03-01T01:06:04;6;5;
63915;PMS5003;50094;51.356;-0.196;2023-03-01T01:08:31;5;5;
63915;PMS5003;50094;51.356;-0.196;2023-03-01T01:10:59;5;5;
63915;PMS5003;50094;51.356;-0.196;2023-03-01T01:13:26;10;10;
63915;PMS5003;50094;51.356;-0.196;2023-03-01T01:15:54;6;5;
63915;PMS5003;50094;51.356;-0.196;2023-03-01T01:18:26;7;5;
63915;PMS5003;50094;51.356;-0.196;2023-03-01T01:20:53;8;5;
63915;PMS5003;50094;51.356;-0.196;2023-03-01T01:23:21;4;4;
63915;PMS5003;50094;51.356;-0.196;2023-03-01T01:25:49;6;6;
63915;PMS5003;50094;51.356;-0.196;2023-03-01T01:28:16;6;5;
63915;PMS5003;50094;51.356;-0.196;2023-03-01T01:30:44;4;3;
63915;PMS5003;50094;51.356;-0.196;2023-03-01T01:33:12;5;5;
63915;PMS5003;50094;51.356;-0.196;2023-03-01T01:35:39;2;2;
63915;PMS5003;50094;51.356;-0.196;2023-03-01T01:38:07;6;5;
63915;PMS5003;50094;51.356;-0.196;2023-03-01T01:40:34;5;4;
63915;PMS5003;50094;51.356;-0.196;2023-03-01T01:43:12;6;5;
63915;PMS5003;50094;51.356;-0.196;2023-03-01T01:45:46;5;5;
63915;PMS5003;50094;51.356;-0.196;2023-03-01T01:48:14;3;2;
63915;PMS5003;50094;51.356;-0.196;2023-03-01T01:50:46;1;1;
63915;PMS5003;50094;51.356;-0.196;2023-03-01T01:53:21;4;4;
63915;PMS5003;50094;51.356;-0.196;2023-03-01T01:55:51;4;4;
63915;PMS5003;50094;51.356;-0.196;2023-03-01T01:58:21;4;4;
63915;PMS5003;50094;51.356;-0.196;2023-03-01T02:00:51;3;3;
63915;PMS5003;50094;51.356;-0.196;2023-03-01T02:03:20;4;4;
63915;PMS5003;50094;51.356;-0.196;2023-03-01T02:05:52;2;2;
63915;PMS5003;50094;51.356;-0.196;2023-03-01T02:08:25;3;3;
63915;PMS5003;50094;51.356;-0.196;2023-03-01T02:10:55;5;5;
63915;PMS5003;50094;51.356;-0.196;2023-03-01T02:13:23;4;4;
63915;PMS5003;50094;51.356;-0.196;2023-03-01T02:15:51;5;2;
63915;PMS5003;50094;51.356;-0.196;2023-03-01T02:18:20;5;4;
63915;PMS5003;50094;51.356;-0.196;2023-03-01T02:20:51;2;2;
63915;PMS5003;50094;51.356;-0.196;2023-03-01T02:23:28;3;3;
63915;PMS5003;50094;51.356;-0.196;2023-03-01T02:25:57;5;4;
63915;PMS5003;50094;51.356;-0.196;2023-03-01T02:28:30;4;4;
63915;PMS5003;50094;51.356;-0.196;2023-03-01T02:30:58;3;2;
63915;PMS5003;50094;51.356;-0.196;2023-03-01T02:33:26;3;3;
63915;PMS5003;50094;51.356;-0.196;2023-03-01T02:35:53;5;3;
63915;PMS5003;50094;51.356;-0.196;2023-03-01T02:38:22;3;3;
63915;PMS5003;50094;51.356;-0.196;2023-03-01T02:40:50;4;2;
63915;PMS5003;50094;51.356;-0.196;2023-03-01T02:43:18;4;2;
63915;PMS5003;50094;51.356;-0.196;2023-03-01T02:45:48;3;3;
63915;PMS5003;50094;51.356;-0.196;2023-03-01T02:48:16;1;1;
63915;PMS5003;50094;51.356;-0.196;2023-03-01T02:50:50;1;1;
63915;PMS5003;50094;51.356;-0.196;2023-03-01T02:53:32;2;2;
63915;PMS5003;50094;51.356;-0.196;2023-03-01T02:56:06;0;0;
63915;PMS5003;50094;51.356;-0.196;2023-03-01T02:58:34;1;1;
63915;PMS5003;50094;51.356;-0.196;2023-03-01T03:01:02;0;0;
63915;PMS5003;50094;51.356;-0.196;2023-03-01T03:03:29;1;1;
63915;PMS5003;50094;51.356;-0.196;2023-03-01T03:05:56;2;1;
63915;PMS5003;50094;51.356;-0.196;2023-03-01T03:08:24;1;1;
63915;PMS5003;50094;51.356;-0.196;2023-03-01T03:10:51;2;1;
63915;PMS5003;50094;51.356;-0.196;2023-03-01T03:13:19;0;0;
63915;PMS5003;50094;51.356;-0.196;2023-03-01T03:15:47;1;1;
63915;PMS5003;50094;51.356;-0.196;2023-03-01T03:18:15;1;1;
63915;PMS5003;50094;51.356;-0.196;2023-03-01T03:20:44;2;1;
63915;PMS5003;50094;51.356;-0.196;2023-03-01T03:23:12;1;1;
63915;PMS5003;50094;51.356;-0.196;2023-03-01T03:25:40;1;0;
63915;PMS5003;50094;51.356;-0.196;2023-03-01T03:28:08;1;1;
63915;PMS5003;50094;51.356;-0.196;2023-03-01T03:30:36;0;0;
63915;PMS5003;50094;51.356;-0.196;2023-03-01T03:33:05;1;1;
63915;PMS5003;50094;51.356;-0.196;2023-03-01T03:35:34;0;0;
63915;PMS5003;50094;51.356;-0.196;2023-03-01T03:38:06;1;1;
63915;PMS5003;50094;51.356;-0.196;2023-03-01T03:40:36;0;0;
63915;PMS5003;50094;51.356;-0.196;2023-03-01T03:43:06;1;1;
63915;PMS5003;50094;51.356;-0.196;2023-03-01T03:45:36;2;1;
63915;PMS5003;50094;51.356;-0.196;2023-03-01T03:48:06;1;0;
63915;PMS5003;50094;51.356;-0.196;2023-03-01T03:50:34;0;0;
63915;PMS5003;50094;51.356;-0.196;2023-03-01T03:53:03;0;0;
63915;PMS5003;50094;51.356;-0.196;2023-03-01T03:55:31;0;0;
63915;PMS5003;50094;51.356;-0.196;2023-03-01T03:57:59;0;0;
63915;PMS5003;50094;51.356;-0.196;2023-03-01T04:00:28;1;0;
63915;PMS5003;50094;51.356;-0.196;2023-03-01T04:02:56;0;0;
63915;PMS5003;50094;51.356;-0.196;2023-03-01T04:05:24;0;0;
63915;PMS5003;50094;51.356;-0.196;2023-03-01T04:07:51;1;0;
63915;PMS5003;50094;51.356;-0.196;2023-03-01T04:10:19;0;0;
63915;PMS5003;50094;51.356;-0.196;2023-03-01T04:12:47;0;0;
63915;PMS5003;50094;51.356;-0.196;2023-03-01T04:15:14;0;0;
63915;PMS5003;50094;51.356;-0.196;2023-03-01T04:17:42;0;0;
63915;PMS5003;50094;51.356;-0.196;2023-03-01T04:20:12;0;0;
63915;PMS5003;50094;51.356;-0.196;2023-03-01T04:22:40;0;0;
63915;PMS5003;50094;51.356;-0.196;2023-03-01T04:25:08;0;0;
63915;PMS5003;50094;51.356;-0.196;2023-03-01T04:27:35;1;1;
63915;PMS5003;50094;51.356;-0.196;2023-03-01T04:30:03;0;0;
63915;PMS5003;50094;51.356;-0.196;2023-03-01T04:32:32;0;0;
63915;PMS5003;50094;51.356;-0.196;2023-03-01T04:34:59;0;0;
63915;PMS5003;50094;51.356;-0.196;2023-03-01T04:37:27;0;0;
63915;PMS5003;50094;51.356;-0.196;2023-03-01T04:39:54;0;0;
63915;PMS5003;50094;51.356;-0.196;2023-03-01T04:42:22;0;0;
63915;PMS5003;50094;51.356;-0.196;2023-03-01T04:44:50;0;0;
63915;PMS5003;50094;51.356;-0.196;2023-03-01T04:47:17;1;0;
63915;PMS5003;50094;51.356;-0.196;2023-03-01T04:49:45;2;1;
63915;PMS5003;50094;51.356;-0.196;2023-03-01T04:52:12;0;0;
63915;PMS5003;50094;51.356;-0.196;2023-03-01T04:54:40;0;0;
63915;PMS5003;50094;51.356;-0.196;2023-03-01T04:57:07;1;0;
63915;PMS5003;50094;51.356;-0.196;2023-03-01T04:59:35;0;0;
63915;PMS5003;50094;51.356;-0.196;2023-03-01T05:02:03;0;0;
63915;PMS5003;50094;51.356;-0.196;2023-03-01T05:04:30;0;0;
63915;PMS5003;50094;51.356;-0.196;2023-03-01T05:06:58;0;0;
63915;PMS5003;50094;51.356;-0.196;2023-03-01T05:09:26;0;0;
63915;PMS5003;50094;51.356;-0.196;2023-03-01T05:11:53;0;0;
63915;PMS5003;50094;51.356;-0.196;2023-03-01T05:14:21;0;0;
63915;PMS5003;50094;51.356;-0.196;2023-03-01T05:16:48;0;0;
63915;PMS5003;50094;51.356;-0.196;2023-03-01T05:19:16;0;0;
63915;PMS5003;50094;51.356;-0.196;2023-03-01T05:21:44;0;0;
63915;PMS5003;50094;51.356;-0.196;2023-03-01T05:24:11;0;0;
63915;PMS5003;50094;51.356;-0.196;2023-03-01T05:26:39;0;0;
63915;PMS5003;50094;51.356;-0.196;2023-03-01T05:29:07;0;0;
63915;PMS5003;50094;51.356;-0.196;2023-03-01T05:31:34;0;0;
63915;PMS5003;50094;51.356;-0.196;2023-03-01T05:34:02;0;0;
63915;PMS5003;50094;51.356;-0.196;2023-03-01T05:36:29;0;0;
63915;PMS5003;50094;51.356;-0.196;2023-03-01T05:38:57;0;0;
63915;PMS5003;50094;51.356;-0.196;2023-03-01T05:41:25;0;0;
63915;PMS5003;50094;51.356;-0.196;2023-03-01T05:43:52;0;0;
63915;PMS5003;50094;51.356;-0.196;2023-03-01T05:46:20;1;0;
63915;PMS5003;50094;51.356;-0.196;2023-03-01T05:48:47;0;0;
63915;PMS5003;50094;51.356;-0.196;2023-03-01T05:51:15;0;0;
63915;PMS5003;50094;51.356;-0.196;2023-03-01T05:53:43;0;0;
63915;PMS5003;50094;51.356;-0.196;2023-03-01T05:56:11;0;0;
63915;PMS5003;50094;51.356;-0.196;2023-03-01T05:58:38;0;0;
63915;PMS5003;50094;51.356;-0.196;2023-03-01T06:01:10;0;0;
63915;PMS5003;50094;51.356;-0.196;2023-03-01T06:03:38;0;0;
63915;PMS5003;50094;51.356;-0.196;2023-03-01T06:06:05;0;0;
63915;PMS5003;50094;51.356;-0.196;2023-03-01T06:08:33;0;0;
63915;PMS5003;50094;51.356;-0.196;2023-03-01T06:11:01;0;0;
63915;PMS5003;50094;51.356;-0.196;2023-03-01T06:13:28;0;0;
63915;PMS5003;50094;51.356;-0.196;2023-03-01T06:15:56;0;0;
63915;PMS5003;50094;51.356;-0.196;2023-03-01T06:18:24;0;0;
63915;PMS5003;50094;51.356;-0.196;2023-03-01T06:20:53;0;0;
63915;PMS5003;50094;51.356;-0.196;2023-03-01T06:23:21;0;0;
63915;PMS5003;50094;51.356;-0.196;2023-03-01T06:25:50;0;0;
63915;PMS5003;50094;51.356;-0.196;2023-03-01T06:28:17;0;0;
63915;PMS5003;50094;51.356;-0.196;2023-03-01T06:30:45;0;0;
63915;PMS5003;50094;51.356;-0.196;2023-03-01T06:33:13;2;1;
63915;PMS5003;50094;51.356;-0.196;2023-03-01T06:35:40;0;0;
63915;PMS5003;50094;51.356;-0.196;2023-03-01T06:38:08;0;0;
63915;PMS5003;50094;51.356;-0.196;2023-03-01T06:40:37;0;0;
63915;PMS5003;50094;51.356;-0.196;2023-03-01T06:43:04;1;1;
63915;PMS5003;50094;51.356;-0.196;2023-03-01T06:45:32;0;0;
63915;PMS5003;50094;51.356;-0.196;2023-03-01T06:48:03;0;0;
63915;PMS5003;50094;51.356;-0.196;2023-03-01T06:50:32;0;0;
63915;PMS5003;50094;51.356;-0.196;2023-03-01T06:53:00;0;0;
63915;PMS5003;50094;51.356;-0.196;2023-03-01T06:55:29;1;1;
63915;PMS5003;50094;51.356;-0.196;2023-03-01T06:57:57;0;0;
63915;PMS5003;50094;51.356;-0.196;2023-03-01T07:00:25;1;0;
63915;PMS5003;50094;51.356;-0.196;2023-03-01T07:02:55;0;0;
63915;PMS5003;50094;51.356;-0.196;2023-03-01T07:05:25;0;0;
63915;PMS5003;50094;51.356;-0.196;2023-03-01T07:07:53;0;0;
63915;PMS5003;50094;51.356;-0.196;2023-03-01T07:10:20;0;0;
63915;PMS5003;50094;51.356;-0.196;2023-03-01T07:12:48;0;0;
63915;PMS5003;50094;51.356;-0.196;2023-03-01T07:15:15;0;0;
63915;PMS5003;50094;51.356;-0.196;2023-03-01T07:17:43;0;0;
63915;PMS5003;50094;51.356;-0.196;2023-03-01T07:20:11;0;0;
63915;PMS5003;50094;51.356;-0.196;2023-03-01T07:22:39;1;0;
63915;PMS5003;50094;51.356;-0.196;2023-03-01T07:25:07;0;0;
63915;PMS5003;50094;51.356;-0.196;2023-03-01T07:27:35;1;0;
63915;PMS5003;50094;51.356;-0.196;2023-03-01T07:30:03;0;0;
63915;PMS5003;50094;51.356;-0.196;2023-03-01T07:32:32;1;1;
63915;PMS5003;50094;51.356;-0.196;2023-03-01T07:34:59;0;0;
63915;PMS5003;50094;51.356;-0.196;2023-03-01T07:37:27;0;0;
63915;PMS5003;50094;51.356;-0.196;2023-03-01T07:39:55;3;0;
63915;PMS5003;50094;51.356;-0.196;2023-03-01T07:42:23;1;1;
63915;PMS5003;50094;51.356;-0.196;2023-03-01T07:44:50;0;0;
63915;PMS5003;50094;51.356;-0.196;2023-03-01T07:47:18;2;0;
63915;PMS5003;50094;51.356;-0.196;2023-03-01T07:49:46;0;0;
63915;PMS5003;50094;51.356;-0.196;2023-03-01T07:52:13;0;0;
63915;PMS5003;50094;51.356;-0.196;2023-03-01T07:54:42;0;0;
63915;PMS5003;50094;51.356;-0.196;2023-03-01T07:57:10;0;0;
63915;PMS5003;50094;51.356;-0.196;2023-03-01T07:59:37;0;0;
63915;PMS5003;50094;51.356;-0.196;2023-03-01T08:02:05;0;0;
63915;PMS5003;50094;51.356;-0.196;2023-03-01T08:04:33;0;0;
63915;PMS5003;50094;51.356;-0.196;2023-03-01T08:07:00;1;1;
63915;PMS5003;50094;51.356;-0.196;2023-03-01T08:09:31;0;0;
63915;PMS5003;50094;51.356;-0.196;2023-03-01T08:12:01;0;0;
63915;PMS5003;50094;51.356;-0.196;2023-03-01T08:14:29;0;0;
63915;PMS5003;50094;51.356;-0.196;2023-03-01T08:16:56;0;0;
63915;PMS5003;50094;51.356;-0.196;2023-03-01T08:19:24;0;0;
63915;PMS5003;50094;51.356;-0.196;2023-03-01T08:21:52;0;0;
63915;PMS5003;50094;51.356;-0.196;2023-03-01T08:24:19;0;0;
63915;PMS5003;50094;51.356;-0.196;2023-03-01T08:26:47;0;0;
63915;PMS5003;50094;51.356;-0.196;2023-03-01T08:29:15;0;0;
63915;PMS5003;50094;51.356;-0.196;2023-03-01T08:31:43;0;0;
63915;PMS5003;50094;51.356;-0.196;2023-03-01T08:34:11;0;0;
63915;PMS5003;50094;51.356;-0.196;2023-03-01T08:36:41;0;0;
63915;PMS5003;50094;51.356;-0.196;2023-03-01T08:39:10;0;0;
63915;PMS5003;50094;51.356;-0.196;2023-03-01T08:41:39;0;0;
63915;PMS5003;50094;51.356;-0.196;2023-03-01T08:44:07;0;0;
63915;PMS5003;50094;51.356;-0.196;2023-03-01T08:46:36;1;0;
63915;PMS5003;50094;51.356;-0.196;2023-03-01T08:49:05;0;0;
63915;PMS5003;50094;51.356;-0.196;2023-03-01T08:51:34;0;0;
63915;PMS5003;50094;51.356;-0.196;2023-03-01T08:54:02;0;0;
63915;PMS5003;50094;51.356;-0.196;2023-03-01T08:56:29;0;0;
63915;PMS5003;50094;51.356;-0.196;2023-03-01T08:58:57;0;0;
63915;PMS5003;50094;51.356;-0.196;2023-03-01T09:01:25;0;0;
63915;PMS5003;50094;51.356;-0.196;2023-03-01T09:03:53;0;0;
63915;PMS5003;50094;51.356;-0.196;2023-03-01T09:06:20;0;0;
63915;PMS5003;50094;51.356;-0.196;2023-03-01T09:08:49;0;0;
63915;PMS5003;50094;51.356;-0.196;2023-03-01T09:11:18;5;5;
63915;PMS5003;50094;51.356;-0.196;2023-03-01T09:13:47;4;4;
63915;PMS5003;50094;51.356;-0.196;2023-03-01T09:16:16;6;6;
63915;PMS5003;50094;51.356;-0.196;2023-03-01T09:18:48;6;6;
63915;PMS5003;50094;51.356;-0.196;2023-03-01T09:21:17;12;12;
63915;PMS5003;50094;51.356;-0.196;2023-03-01T09:23:46;14;14;
63915;PMS5003;50094;51.356;-0.196;2023-03-01T09:26:15;17;16;
63915;PMS5003;50094;51.356;-0.196;2023-03-01T09:28:43;19;19;
63915;PMS5003;50094;51.356;-0.196;2023-03-01T09:31:11;19;18;
63915;PMS5003;50094;51.356;-0.196;2023-03-01T09:33:39;17;16;
63915;PMS5003;50094;51.356;-0.196;2023-03-01T09:36:10;23;23;
63915;PMS5003;50094;51.356;-0.196;2023-03-01T09:38:39;18;18;
63915;PMS5003;50094;51.356;-0.196;2023-03-01T09:41:09;20;20;
63915;PMS5003;50094;51.356;-0.196;2023-03-01T09:43:46;17;17;
63915;PMS5003;50094;51.356;-0.196;2023-03-01T09:46:16;19;19;
63915;PMS5003;50094;51.356;-0.196;2023-03-01T09:48:44;21;21;
63915;PMS5003;50094;51.356;-0.196;2023-03-01T09:51:17;20;20;
63915;PMS5003;50094;51.356;-0.196;2023-03-01T09:53:50;19;19;
63915;PMS5003;50094;51.356;-0.196;2023-03-01T09:56:19;18;18;
63915;PMS5003;50094;51.356;-0.196;2023-03-01T09:58:53;26;25;
63915;PMS5003;50094;51.356;-0.196;2023-03-01T10:01:28;26;26;
63915;PMS5003;50094;51.356;-0.196;2023-03-01T10:04:02;24;23;
63915;PMS5003;50094;51.356;-0.196;2023-03-01T10:06:39;25;25;
63915;PMS5003;50094;51.356;-0.196;2023-03-01T10:09:18;29;29;
63915;PMS5003;50094;51.356;-0.196;2023-03-01T10:11:47;25;25;
63915;PMS5003;50094;51.356;-0.196;2023-03-01T10:14:23;39;39;
63915;PMS5003;50094;51.356;-0.196;2023-03-01T10:17:01;32;32;
63915;PMS5003;50094;51.356;-0.196;2023-03-01T10:19:32;16;16;
63915;PMS5003;50094;51.356;-0.196;2023-03-01T10:22:11;24;24;
63915;PMS5003;50094;51.356;-0.196;2023-03-01T10:24:41;20;20;
63915;PMS5003;50094;51.356;-0.196;2023-03-01T10:27:11;18;18;
63915;PMS5003;50094;51.356;-0.196;2023-03-01T10:29:46;23;23;
63915;PMS5003;50094;51.356;-0.196;2023-03-01T10:32:21;34;34;
63915;PMS5003;50094;51.356;-0.196;2023-03-01T10:34:49;28;28;
63915;PMS5003;50094;51.356;-0.196;2023-03-01T10:37:17;22;22;
63915;PMS5003;50094;51.356;-0.196;2023-03-01T10:40:02;10;10;
63915;PMS5003;50094;51.356;-0.196;2023-03-01T10:42:32;17;17;
63915;PMS5003;50094;51.356;-0.196;2023-03-01T10:45:26;19;19;
63915;PMS5003;50094;51.356;-0.196;2023-03-01T10:48:08;28;28;
63915;PMS5003;50094;51.356;-0.196;2023-03-01T10:50:39;43;43;
63915;PMS5003;50094;51.356;-0.196;2023-03-01T10:53:18;25;25;
63915;PMS5003;50094;51.356;-0.196;2023-03-01T10:55:56;29;29;
63915;PMS5003;50094;51.356;-0.196;2023-03-01T10:58:26;30;30;
63915;PMS5003;50094;51.356;-0.196;2023-03-01T11:00:54;24;24;
63915;PMS5003;50094;51.356;-0.196;2023-03-01T11:03:24;7;7;
63915;PMS5003;50094;51.356;-0.196;2023-03-01T11:05:58;7;7;
63915;PMS5003;50094;51.356;-0.196;2023-03-01T11:08:30;14;14;
63915;PMS5003;50094;51.356;-0.196;2023-03-01T11:11:14;0;0;
63915;PMS5003;50094;51.356;-0.196;2023-03-01T11:13:53;0;0;
63915;PMS5003;50094;51.356;-0.196;2023-03-01T11:16:24;0;0;
63915;PMS5003;50094;51.356;-0.196;2023-03-01T11:18:56;0;0;
63915;PMS5003;50094;51.356;-0.196;2023-03-01T11:21:25;0;0;
63915;PMS5003;50094;51.356;-0.196;2023-03-01T11:23:55;0;0;
63915;PMS5003;50094;51.356;-0.196;2023-03-01T11:26:26;0;0;
63915;PMS5003;50094;51.356;-0.196;2023-03-01T11:28:58;0;0;
63915;PMS5003;50094;51.356;-0.196;2023-03-01T11:31:33;0;0;
63915;PMS5003;50094;51.356;-0.196;2023-03-01T11:34:05;0;0;
63915;PMS5003;50094;51.356;-0.196;2023-03-01T11:36:40;0;0;
63915;PMS5003;50094;51.356;-0.196;2023-03-01T11:39:15;0;0;
63915;PMS5003;50094;51.356;-0.196;2023-03-01T11:41:56;0;0;
63915;PMS5003;50094;51.356;-0.196;2023-03-01T11:44:31;0;0;
63915;PMS5003;50094;51.356;-0.196;2023-03-01T11:47:07;0;0;
63915;PMS5003;50094;51.356;-0.196;2023-03-01T11:49:51;0;0;
63915;PMS5003;50094;51.356;-0.196;2023-03-01T11:52:46;0;0;
63915;PMS5003;50094;51.356;-0.196;2023-03-01T11:55:28;2;2;
63915;PMS5003;50094;51.356;-0.196;2023-03-01T11:58:14;49;49;
63915;PMS5003;50094;51.356;-0.196;2023-03-01T12:00:57;18;18;
63915;PMS5003;50094;51.356;-0.196;2023-03-01T12:03:39;21;21;
63915;PMS5003;50094;51.356;-0.196;2023-03-01T12:06:21;19;19;
63915;PMS5003;50094;51.356;-0.196;2023-03-01T12:09:23;16;16;
63915;PMS5003;50094;51.356;-0.196;2023-03-01T12:12:07;14;14;
63915;PMS5003;50094;51.356;-0.196;2023-03-01T12:14:51;20;20;
63915;PMS5003;50094;51.356;-0.196;2023-03-01T12:17:51;13;13;
63915;PMS5003;50094;51.356;-0.196;2023-03-01T12:20:31;9;9;
63915;PMS5003;50094;51.356;-0.196;2023-03-01T12:23:10;8;8;
63915;PMS5003;50094;51.356;-0.196;2023-03-01T12:25:53;7;7;
63915;PMS5003;50094;51.356;-0.196;2023-03-01T12:28:35;6;6;
63915;PMS5003;50094;51.356;-0.196;2023-03-01T12:31:18;4;3;
63915;PMS5003;50094;51.356;-0.196;2023-03-01T12:34:30;1;1;
63915;PMS5003;50094;51.356;-0.196;2023-03-01T12:37:16;1;1;
63915;PMS5003;50094;51.356;-0.196;2023-03-01T12:39:56;1;1;
63915;PMS5003;50094;51.356;-0.196;2023-03-01T12:42:40;1;1;
63915;PMS5003;50094;51.356;-0.196;2023-03-01T12:45:26;0;0;
63915;PMS5003;50094;51.356;-0.196;2023-03-01T12:48:09;0;0;
63915;PMS5003;50094;51.356;-0.196;2023-03-01T12:50:59;0;0;
63915;PMS5003;50094;51.356;-0.196;2023-03-01T12:53:30;0;0;
63915;PMS5003;50094;51.356;-0.196;2023-03-01T12:56:05;0;0;
63915;PMS5003;50094;51.356;-0.196;2023-03-01T12:58:34;0;0;
63915;PMS5003;50094;51.356;-0.196;2023-03-01T13:01:14;0;0;
63915;PMS5003;50094;51.356;-0.196;2023-03-01T13:03:55;0;0;
63915;PMS5003;50094;51.356;-0.196;2023-03-01T13:06:35;0;0;
63915;PMS5003;50094;51.356;-0.196;2023-03-01T13:09:10;0;0;
63915;PMS5003;50094;51.356;-0.196;2023-03-01T13:11:47;1;1;
63915;PMS5003;50094;51.356;-0.196;2023-03-01T13:14:46;0;0;
63915;PMS5003;50094;51.356;-0.196;2023-03-01T13:17:31;2;1;
63915;PMS5003;50094;51.356;-0.196;2023-03-01T13:20:11;3;1;
63915;PMS5003;50094;51.356;-0.196;2023-03-01T13:22:41;3;3;
63915;PMS5003;50094;51.356;-0.196;2023-03-01T13:25:12;3;3;
63915;PMS5003;50094;51.356;-0.196;2023-03-01T13:27:42;4;4;
63915;PMS5003;50094;51.356;-0.196;2023-03-01T13:30:42;6;6;
63915;PMS5003;50094;51.356;-0.196;2023-03-01T13:33:42;9;9;
63915;PMS5003;50094;51.356;-0.196;2023-03-01T13:36:13;4;4;
63915;PMS5003;50094;51.356;-0.196;2023-03-01T13:39:30;4;4;
63915;PMS5003;50094;51.356;-0.196;2023-03-01T13:42:25;4;4;
63915;PMS5003;50094;51.356;-0.196;2023-03-01T13:45:00;1;1;
63915;PMS5003;50094;51.356;-0.196;2023-03-01T13:47:29;1;1;
63915;PMS5003;50094;51.356;-0.196;2023-03-01T13:49:58;2;2;
63915;PMS5003;50094;51.356;-0.196;2023-03-01T13:52:37;1;1;
63915;PMS5003;50094;51.356;-0.196;2023-03-01T13:55:14;1;1;
63915;PMS5003;50094;51.356;-0.196;2023-03-01T13:57:46;0;0;
63915;PMS5003;50094;51.356;-0.196;2023-03-01T14:00:33;0;0;
63915;PMS5003;50094;51.356;-0.196;2023-03-01T14:03:04;0;0;
63915;PMS5003;50094;51.356;-0.196;2023-03-01T14:05:36;0;0;
63915;PMS5003;50094;51.356;-0.196;2023-03-01T14:08:13;0;0;
63915;PMS5003;50094;51.356;-0.196;2023-03-01T14:10:54;0;0;
63915;PMS5003;50094;51.356;-0.196;2023-03-01T14:13:36;0;0;
63915;PMS5003;50094;51.356;-0.196;2023-03-01T14:16:19;0;0;
63915;PMS5003;50094;51.356;-0.196;2023-03-01T14:18:58;0;0;
63915;PMS5003;50094;51.356;-0.196;2023-03-01T14:21:39;0;0;
63915;PMS5003;50094;51.356;-0.196;2023-03-01T14:24:13;0;0;
63915;PMS5003;50094;51.356;-0.196;2023-03-01T14:26:44;0;0;
63915;PMS5003;50094;51.356;-0.196;2023-03-01T14:29:27;0;0;
63915;PMS5003;50094;51.356;-0.196;2023-03-01T14:32:08;0;0;
63915;PMS5003;50094;51.356;-0.196;2023-03-01T14:34:38;0;0;
63915;PMS5003;50094;51.356;-0.196;2023-03-01T14:37:10;0;0;
63915;PMS5003;50094;51.356;-0.196;2023-03-01T14:39:45;0;0;
63915;PMS5003;50094;51.356;-0.196;2023-03-01T14:42:12;0;0;
63915;PMS5003;50094;51.356;-0.196;2023-03-01T14:44:42;0;0;
63915;PMS5003;50094;51.356;-0.196;2023-03-01T14:47:15;0;0;
63915;PMS5003;50094;51.356;-0.196;2023-03-01T14:49:50;0;0;
63915;PMS5003;50094;51.356;-0.196;2023-03-01T14:52:25;1;1;
63915;PMS5003;50094;51.356;-0.196;2023-03-01T14:55:00;0;0;
63915;PMS5003;50094;51.356;-0.196;2023-03-01T14:57:32;0;0;
63915;PMS5003;50094;51.356;-0.196;2023-03-01T15:00:01;0;0;
63915;PMS5003;50094;51.356;-0.196;2023-03-01T15:02:32;0;0;
63915;PMS5003;50094;51.356;-0.196;2023-03-01T15:05:02;0;0;
63915;PMS5003;50094;51.356;-0.196;2023-03-01T15:07:31;0;0;
63915;PMS5003;50094;51.356;-0.196;2023-03-01T15:10:02;0;0;
63915;PMS5003;50094;51.356;-0.196;2023-03-01T15:12:35;0;0;
63915;PMS5003;50094;51.356;-0.196;2023-03-01T15:15:22;0;0;
63915;PMS5003;50094;51.356;-0.196;2023-03-01T15:18:03;0;0;
63915;PMS5003;50094;51.356;-0.196;2023-03-01T15:20:40;0;0;
63915;PMS5003;50094;51.356;-0.196;2023-03-01T15:23:12;0;0;
63915;PMS5003;50094;51.356;-0.196;2023-03-01T15:25:46;0;0;
63915;PMS5003;50094;51.356;-0.196;2023-03-01T15:28:17;1;0;
63915;PMS5003;50094;51.356;-0.196;2023-03-01T15:30:51;2;0;
63915;PMS5003;50094;51.356;-0.196;2023-03-01T15:33:31;0;0;
63915;PMS5003;50094;51.356;-0.196;2023-03-01T15:36:02;0;0;
63915;PMS5003;50094;51.356;-0.196;2023-03-01T15:38:56;0;0;
63915;PMS5003;50094;51.356;-0.196;2023-03-01T15:41:25;0;0;
63915;PMS5003;50094;51.356;-0.196;2023-03-01T15:43:54;1;1;
63915;PMS5003;50094;51.356;-0.196;2023-03-01T15:46:23;5;4;
63915;PMS5003;50094;51.356;-0.196;2023-03-01T15:48:55;4;3;
63915;PMS5003;50094;51.356;-0.196;2023-03-01T15:51:30;5;4;
63915;PMS5003;50094;51.356;-0.196;2023-03-01T15:54:02;7;6;
63915;PMS5003;50094;51.356;-0.196;2023-03-01T15:56:32;8;5;
63915;PMS5003;50094;51.356;-0.196;2023-03-01T15:59:00;5;4;
63915;PMS5003;50094;51.356;-0.196;2023-03-01T16:01:28;5;4;
63915;PMS5003;50094;51.356;-0.196;2023-03-01T16:03:56;7;6;
63915;PMS5003;50094;51.356;-0.196;2023-03-01T16:06:24;9;5;
63915;PMS5003;50094;51.356;-0.196;2023-03-01T16:08:51;7;4;
63915;PMS5003;50094;51.356;-0.196;2023-03-01T16:11:19;8;6;
63915;PMS5003;50094;51.356;-0.196;2023-03-01T16:13:47;9;4;
63915;PMS5003;50094;51.356;-0.196;2023-03-01T16:16:15;6;4;
63915;PMS5003;50094;51.356;-0.196;2023-03-01T16:18:43;4;3;
63915;PMS5003;50094;51.356;-0.196;2023-03-01T16:21:13;4;4;
63915;PMS5003;50094;51.356;-0.196;2023-03-01T16:23:43;5;5;
63915;PMS5003;50094;51.356;-0.196;2023-03-01T16:26:11;5;4;
63915;PMS5003;50094;51.356;-0.196;2023-03-01T16:28:38;5;3;
63915;PMS5003;50094;51.356;-0.196;2023-03-01T16:31:06;2;2;
63915;PMS5003;50094;51.356;-0.196;2023-03-01T16:33:34;2;2;
63915;PMS5003;50094;51.356;-0.196;2023-03-01T16:36:05;2;2;
63915;PMS5003;50094;51.356;-0.196;2023-03-01T16:38:34;4;3;
63915;PMS5003;50094;51.356;-0.196;2023-03-01T16:41:01;4;3;
63915;PMS5003;50094;51.356;-0.196;2023-03-01T16:43:29;6;4;
63915;PMS5003;50094;51.356;-0.196;2023-03-01T16:45:57;2;2;
63915;PMS5003;50094;51.356;-0.196;2023-03-01T16:48:25;2;2;
63915;PMS5003;50094;51.356;-0.196;2023-03-01T16:50:56;2;2;
63915;PMS5003;50094;51.356;-0.196;2023-03-01T16:53:24;2;1;
63915;PMS5003;50094;51.356;-0.196;2023-03-01T16:55:53;4;2;
63915;PMS5003;50094;51.356;-0.196;2023-03-01T16:58:21;5;2;
63915;PMS5003;50094;51.356;-0.196;2023-03-01T17:00:48;3;2;